sensor_id;sensor_type;location;lat;lon;timestamp;pressure;altitude;pressure_sealevel;temperature;humidity
3654;BME280;70277;54.302;10.064;2024-01-25T00:01:36;101347.47;;;8.77;73.98
3654;BME280;70277;54.302;10.064;2024-01-25T00:04:03;101347.09;;;8.73;73.56
3654;BME280;70277;54.302;10.064;2024-01-25T00:06:30;101368.72;;;8.66;74.10
3654;BME280;70277;54.302;10.064;2024-01-25T00:08:56;101354.97;;;8.50;73.92
3654;BME280;70277;54.302;10.064;2024-01-25T00:11:23;101361.06;;;8.88;73.44
3654;BME280;70277;54.302;10.064;2024-01-25T00:13:50;101365.81;;;8.68;73.89
3654;BME280;70277;54.302;10.064;2024-01-25T00:16:16;101355.13;;;8.55;74.01
3654;BME280;70277;54.302;10.064;2024-01-25T00:18:43;101381.03;;;8.81;73.04
3654;BME280;70277;54.302;10.064;2024-01-25T00:21:10;101372.28;;;8.85;73.06
3654;BME280;70277;54.302;10.064;2024-01-25T00:23:36;101369.81;;;8.59;73.55
3654;BME280;70277;54.302;10.064;2024-01-25T00:26:03;101358.09;;;8.47;73.38
3654;BME280;70277;54.302;10.064;2024-01-25T00:28:30;101362.94;;;8.63;73.92
3654;BME280;70277;54.302;10.064;2024-01-25T00:30:57;101369.81;;;8.84;73.57
3654;BME280;70277;54.302;10.064;2024-01-25T00:33:23;101354.69;;;8.58;74.11
3654;BME280;70277;54.302;10.064;2024-01-25T00:35:50;101345.19;;;8.49;74.07
3654;BME280;70277;54.302;10.064;2024-01-25T00:38:17;101370.28;;;8.56;74.68
3654;BME280;70277;54.302;10.064;2024-01-25T00:40:44;101378.69;;;8.66;74.10
3654;BME280;70277;54.302;10.064;2024-01-25T00:43:11;101384.50;;;8.70;74.38
3654;BME280;70277;54.302;10.064;2024-01-25T00:45:38;101360.03;;;8.64;74.87
3654;BME280;70277;54.302;10.064;2024-01-25T00:48:05;101353.28;;;8.49;74.40
3654;BME280;70277;54.302;10.064;2024-01-25T00:50:32;101384.13;;;8.59;74.33
3654;BME280;70277;54.302;10.064;2024-01-25T00:52:59;101374.00;;;8.23;75.76
3654;BME280;70277;54.302;10.064;2024-01-25T00:55:26;101376.19;;;8.39;75.10
3654;BME280;70277;54.302;10.064;2024-01-25T00:57:53;101380.22;;;8.80;74.23
3654;BME280;70277;54.302;10.064;2024-01-25T01:00:21;101380.56;;;8.34;75.33
3654;BME280;70277;54.302;10.064;2024-01-25T01:02:48;101395.50;;;8.43;75.31
3654;BME280;70277;54.302;10.064;2024-01-25T01:05:16;101396.03;;;8.77;74.64
3654;BME280;70277;54.302;10.064;2024-01-25T01:07:43;101394.28;;;8.32;75.71
3654;BME280;70277;54.302;10.064;2024-01-25T01:10:11;101403.50;;;8.18;76.12
3654;BME280;70277;54.302;10.064;2024-01-25T01:12:39;101403.78;;;8.41;75.59
3654;BME280;70277;54.302;10.064;2024-01-25T01:15:06;101409.41;;;8.33;75.72
3654;BME280;70277;54.302;10.064;2024-01-25T01:17:33;101407.56;;;8.27;75.79
3654;BME280;70277;54.302;10.064;2024-01-25T01:19:59;101416.41;;;8.48;75.63
3654;BME280;70277;54.302;10.064;2024-01-25T01:22:27;101420.91;;;8.15;75.93
3654;BME280;70277;54.302;10.064;2024-01-25T01:24:53;101413.25;;;8.51;75.55
3654;BME280;70277;54.302;10.064;2024-01-25T01:27:21;101423.50;;;8.35;75.26
3654;BME280;70277;54.302;10.064;2024-01-25T01:29:47;101433.00;;;8.45;74.58
3654;BME280;70277;54.302;10.064;2024-01-25T01:32:14;101422.78;;;8.15;75.41
3654;BME280;70277;54.302;10.064;2024-01-25T01:34:40;101434.03;;;8.50;75.24
3654;BME280;70277;54.302;10.064;2024-01-25T01:37:07;101424.91;;;8.45;75.11
3654;BME280;70277;54.302;10.064;2024-01-25T01:39:34;101422.88;;;8.33;74.96
3654;BME280;70277;54.302;10.064;2024-01-25T01:42:00;101426.63;;;8.32;75.72
3654;BME280;70277;54.302;10.064;2024-01-25T01:44:27;101431.59;;;8.35;75.75
3654;BME280;70277;54.302;10.064;2024-01-25T01:46:54;101444.91;;;8.30;75.72
3654;BME280;70277;54.302;10.064;2024-01-25T01:49:21;101441.59;;;8.28;76.29
3654;BME280;70277;54.302;10.064;2024-01-25T01:51:48;101438.22;;;8.39;75.81
3654;BME280;70277;54.302;10.064;2024-01-25T01:54:16;101447.44;;;8.18;76.25
3654;BME280;70277;54.302;10.064;2024-01-25T01:56:42;101459.50;;;8.16;76.57
3654;BME280;70277;54.302;10.064;2024-01-25T01:59:11;101457.75;;;8.35;76.20
3654;BME280;70277;54.302;10.064;2024-01-25T02:01:37;101464.78;;;8.36;76.34
3654;BME280;70277;54.302;10.064;2024-01-25T02:04:05;101470.34;;;8.48;75.61
3654;BME280;70277;54.302;10.064;2024-01-25T02:06:32;101479.25;;;8.48;75.55
3654;BME280;70277;54.302;10.064;2024-01-25T02:08:59;101483.09;;;8.27;75.63
3654;BME280;70277;54.302;10.064;2024-01-25T02:11:26;101469.34;;;8.42;75.82
3654;BME280;70277;54.302;10.064;2024-01-25T02:13:52;101500.53;;;8.70;74.87
3654;BME280;70277;54.302;10.064;2024-01-25T02:16:19;101502.72;;;8.79;74.44
3654;BME280;70277;54.302;10.064;2024-01-25T02:18:47;101508.25;;;8.59;75.23
3654;BME280;70277;54.302;10.064;2024-01-25T02:21:14;101496.69;;;8.46;75.31
3654;BME280;70277;54.302;10.064;2024-01-25T02:23:41;101500.84;;;8.80;74.64
3654;BME280;70277;54.302;10.064;2024-01-25T02:26:08;101522.00;;;8.83;74.36
3654;BME280;70277;54.302;10.064;2024-01-25T02:28:34;101514.84;;;8.63;74.58
3654;BME280;70277;54.302;10.064;2024-01-25T02:31:02;101519.16;;;8.39;75.16
3654;BME280;70277;54.302;10.064;2024-01-25T02:33:29;101518.66;;;8.56;74.79
3654;BME280;70277;54.302;10.064;2024-01-25T02:35:57;101515.09;;;8.62;74.00
3654;BME280;70277;54.302;10.064;2024-01-25T02:38:23;101519.28;;;8.58;74.43
3654;BME280;70277;54.302;10.064;2024-01-25T02:40:50;101534.41;;;8.59;73.88
3654;BME280;70277;54.302;10.064;2024-01-25T02:43:17;101521.88;;;8.71;74.41
3654;BME280;70277;54.302;10.064;2024-01-25T02:45:45;101531.84;;;8.71;74.37
3654;BME280;70277;54.302;10.064;2024-01-25T02:48:12;101526.66;;;8.69;74.40
3654;BME280;70277;54.302;10.064;2024-01-25T02:50:39;101520.28;;;8.57;74.37
3654;BME280;70277;54.302;10.064;2024-01-25T02:53:05;101527.72;;;8.68;74.22
3654;BME280;70277;54.302;10.064;2024-01-25T02:55:32;101536.09;;;8.53;74.61
3654;BME280;70277;54.302;10.064;2024-01-25T02:57:58;101532.22;;;8.74;74.05
3654;BME280;70277;54.302;10.064;2024-01-25T03:00:25;101544.19;;;8.53;74.09
3654;BME280;70277;54.302;10.064;2024-01-25T03:02:51;101547.94;;;8.52;74.11
3654;BME280;70277;54.302;10.064;2024-01-25T03:05:18;101559.78;;;8.45;74.46
3654;BME280;70277;54.302;10.064;2024-01-25T03:07:45;101563.69;;;8.94;73.34
3654;BME280;70277;54.302;10.064;2024-01-25T03:10:12;101576.16;;;8.88;73.24
3654;BME280;70277;54.302;10.064;2024-01-25T03:12:40;101572.66;;;8.42;74.43
3654;BME280;70277;54.302;10.064;2024-01-25T03:15:07;101575.56;;;8.86;72.85
3654;BME280;70277;54.302;10.064;2024-01-25T03:17:33;101574.97;;;8.77;73.51
3654;BME280;70277;54.302;10.064;2024-01-25T03:20:00;101582.44;;;8.82;73.84
3654;BME280;70277;54.302;10.064;2024-01-25T03:22:27;101600.41;;;8.95;73.35
3654;BME280;70277;54.302;10.064;2024-01-25T03:24:54;101593.16;;;8.95;72.81
3654;BME280;70277;54.302;10.064;2024-01-25T03:27:21;101593.34;;;8.62;73.75
3654;BME280;70277;54.302;10.064;2024-01-25T03:29:47;101593.63;;;8.85;72.68
3654;BME280;70277;54.302;10.064;2024-01-25T03:32:14;101612.78;;;8.77;73.36
3654;BME280;70277;54.302;10.064;2024-01-25T03:34:41;101602.94;;;8.89;73.59
3654;BME280;70277;54.302;10.064;2024-01-25T03:37:08;101594.31;;;8.74;73.62
3654;BME280;70277;54.302;10.064;2024-01-25T03:39:34;101588.25;;;9.10;72.46
3654;BME280;70277;54.302;10.064;2024-01-25T03:42:01;101601.00;;;8.65;73.80
3654;BME280;70277;54.302;10.064;2024-01-25T03:44:27;101590.88;;;8.54;73.87
3654;BME280;70277;54.302;10.064;2024-01-25T03:46:54;101593.88;;;8.77;73.66
3654;BME280;70277;54.302;10.064;2024-01-25T03:49:21;101606.16;;;8.66;74.04
3654;BME280;70277;54.302;10.064;2024-01-25T03:51:49;101610.84;;;8.33;74.78
3654;BME280;70277;54.302;10.064;2024-01-25T03:54:16;101597.81;;;8.75;73.69
3654;BME280;70277;54.302;10.064;2024-01-25T03:56:43;101618.78;;;8.79;73.64
3654;BME280;70277;54.302;10.064;2024-01-25T03:59:10;101615.31;;;9.04;73.21
3654;BME280;70277;54.302;10.064;2024-01-25T04:01:45;101610.78;;;8.59;74.15
3654;BME280;70277;54.302;10.064;2024-01-25T04:04:14;101608.38;;;8.83;74.07
3654;BME280;70277;54.302;10.064;2024-01-25T04:06:44;101628.63;;;8.60;73.50
3654;BME280;70277;54.302;10.064;2024-01-25T04:09:14;101638.22;;;8.50;74.22
3654;BME280;70277;54.302;10.064;2024-01-25T04:11:43;101646.88;;;8.65;74.11
3654;BME280;70277;54.302;10.064;2024-01-25T04:14:10;101649.22;;;8.55;73.87
3654;BME280;70277;54.302;10.064;2024-01-25T04:16:37;101648.16;;;8.56;73.88
3654;BME280;70277;54.302;10.064;2024-01-25T04:19:03;101663.00;;;8.78;73.37
3654;BME280;70277;54.302;10.064;2024-01-25T04:21:30;101656.81;;;8.71;73.55
3654;BME280;70277;54.302;10.064;2024-01-25T04:23:57;101661.00;;;8.67;73.76
3654;BME280;70277;54.302;10.064;2024-01-25T04:26:23;101670.00;;;8.93;73.02
3654;BME280;70277;54.302;10.064;2024-01-25T04:28:50;101674.84;;;8.77;73.21
3654;BME280;70277;54.302;10.064;2024-01-25T04:31:17;101666.78;;;8.71;74.01
3654;BME280;70277;54.302;10.064;2024-01-25T04:33:43;101664.72;;;8.66;73.95
3654;BME280;70277;54.302;10.064;2024-01-25T04:36:14;101676.63;;;8.97;72.93
3654;BME280;70277;54.302;10.064;2024-01-25T04:38:41;101673.16;;;8.83;73.12
3654;BME280;70277;54.302;10.064;2024-01-25T04:41:07;101669.25;;;8.72;73.47
3654;BME280;70277;54.302;10.064;2024-01-25T04:43:35;101677.25;;;8.47;73.99
3654;BME280;70277;54.302;10.064;2024-01-25T04:46:04;101671.19;;;8.58;73.56
3654;BME280;70277;54.302;10.064;2024-01-25T04:48:31;101682.16;;;8.70;73.31
3654;BME280;70277;54.302;10.064;2024-01-25T04:50:59;101696.09;;;8.54;73.70
3654;BME280;70277;54.302;10.064;2024-01-25T04:53:25;101688.34;;;8.77;73.08
3654;BME280;70277;54.302;10.064;2024-01-25T04:55:55;101685.94;;;9.01;72.45
3654;BME280;70277;54.302;10.064;2024-01-25T04:58:23;101683.69;;;8.39;73.64
3654;BME280;70277;54.302;10.064;2024-01-25T05:00:49;101688.75;;;8.74;73.37
3654;BME280;70277;54.302;10.064;2024-01-25T05:03:18;101683.84;;;8.58;73.50
3654;BME280;70277;54.302;10.064;2024-01-25T05:05:45;101692.59;;;8.47;73.49
3654;BME280;70277;54.302;10.064;2024-01-25T05:08:11;101707.50;;;8.56;73.80
3654;BME280;70277;54.302;10.064;2024-01-25T05:10:38;101723.47;;;8.57;73.82
3654;BME280;70277;54.302;10.064;2024-01-25T05:13:05;101725.50;;;8.75;73.41
3654;BME280;70277;54.302;10.064;2024-01-25T05:15:31;101740.28;;;8.66;73.57
3654;BME280;70277;54.302;10.064;2024-01-25T05:17:58;101742.28;;;8.91;72.89
3654;BME280;70277;54.302;10.064;2024-01-25T05:20:25;101752.16;;;9.10;72.33
3654;BME280;70277;54.302;10.064;2024-01-25T05:22:59;101756.81;;;8.89;72.54
3654;BME280;70277;54.302;10.064;2024-01-25T05:25:25;101753.84;;;9.04;72.54
3654;BME280;70277;54.302;10.064;2024-01-25T05:27:56;101763.03;;;8.97;72.32
3654;BME280;70277;54.302;10.064;2024-01-25T05:30:24;101766.22;;;8.67;73.28
3654;BME280;70277;54.302;10.064;2024-01-25T05:32:51;101762.69;;;8.66;73.30
3654;BME280;70277;54.302;10.064;2024-01-25T05:35:20;101756.81;;;8.89;73.18
3654;BME280;70277;54.302;10.064;2024-01-25T05:37:47;101765.97;;;8.75;73.24
3654;BME280;70277;54.302;10.064;2024-01-25T05:40:13;101759.50;;;8.89;73.17
3654;BME280;70277;54.302;10.064;2024-01-25T05:42:40;101746.91;;;8.70;73.42
3654;BME280;70277;54.302;10.064;2024-01-25T05:45:07;101759.72;;;8.88;73.12
3654;BME280;70277;54.302;10.064;2024-01-25T05:47:35;101754.56;;;8.80;72.88
3654;BME280;70277;54.302;10.064;2024-01-25T05:50:02;101757.13;;;8.55;73.68
3654;BME280;70277;54.302;10.064;2024-01-25T05:52:28;101778.06;;;8.59;73.00
3654;BME280;70277;54.302;10.064;2024-01-25T05:54:55;101778.94;;;8.47;73.55
3654;BME280;70277;54.302;10.064;2024-01-25T05:57:22;101762.84;;;8.78;72.65
3654;BME280;70277;54.302;10.064;2024-01-25T05:59:48;101771.84;;;8.59;72.76
3654;BME280;70277;54.302;10.064;2024-01-25T06:02:15;101773.22;;;8.81;72.16
3654;BME280;70277;54.302;10.064;2024-01-25T06:04:42;101785.69;;;8.82;72.34
3654;BME280;70277;54.302;10.064;2024-01-25T06:07:08;101796.28;;;8.77;72.49
3654;BME280;70277;54.302;10.064;2024-01-25T06:09:35;101793.81;;;8.76;72.36
3654;BME280;70277;54.302;10.064;2024-01-25T06:12:02;101787.75;;;8.87;72.21
3654;BME280;70277;54.302;10.064;2024-01-25T06:14:31;101796.75;;;8.48;73.43
3654;BME280;70277;54.302;10.064;2024-01-25T06:16:57;101798.56;;;8.94;72.35
3654;BME280;70277;54.302;10.064;2024-01-25T06:19:24;101804.41;;;8.77;72.77
3654;BME280;70277;54.302;10.064;2024-01-25T06:21:50;101794.28;;;8.53;73.24
3654;BME280;70277;54.302;10.064;2024-01-25T06:24:17;101797.19;;;8.58;73.21
3654;BME280;70277;54.302;10.064;2024-01-25T06:26:43;101805.06;;;8.46;73.20
3654;BME280;70277;54.302;10.064;2024-01-25T06:29:10;101819.53;;;8.78;72.31
3654;BME280;70277;54.302;10.064;2024-01-25T06:31:43;101795.72;;;8.55;72.45
3654;BME280;70277;54.302;10.064;2024-01-25T06:34:10;101824.56;;;8.41;72.98
3654;BME280;70277;54.302;10.064;2024-01-25T06:36:37;101813.78;;;8.48;73.05
3654;BME280;70277;54.302;10.064;2024-01-25T06:39:04;101814.16;;;8.85;72.41
3654;BME280;70277;54.302;10.064;2024-01-25T06:41:31;101828.31;;;8.67;73.04
3654;BME280;70277;54.302;10.064;2024-01-25T06:43:59;101823.72;;;8.54;73.10
3654;BME280;70277;54.302;10.064;2024-01-25T06:46:25;101823.50;;;8.69;72.91
3654;BME280;70277;54.302;10.064;2024-01-25T06:48:52;101832.03;;;8.73;72.79
3654;BME280;70277;54.302;10.064;2024-01-25T06:51:19;101847.38;;;8.46;73.02
3654;BME280;70277;54.302;10.064;2024-01-25T06:53:45;101844.03;;;8.83;72.61
3654;BME280;70277;54.302;10.064;2024-01-25T06:56:13;101841.75;;;8.80;72.73
3654;BME280;70277;54.302;10.064;2024-01-25T06:58:39;101864.78;;;8.89;72.92
3654;BME280;70277;54.302;10.064;2024-01-25T07:01:06;101852.97;;;8.91;72.90
3654;BME280;70277;54.302;10.064;2024-01-25T07:03:33;101857.78;;;8.62;73.49
3654;BME280;70277;54.302;10.064;2024-01-25T07:06:00;101862.28;;;8.95;72.72
3654;BME280;70277;54.302;10.064;2024-01-25T07:08:27;101870.44;;;8.68;72.88
3654;BME280;70277;54.302;10.064;2024-01-25T07:10:53;101870.03;;;8.58;73.61
3654;BME280;70277;54.302;10.064;2024-01-25T07:13:22;101876.66;;;8.62;73.97
3654;BME280;70277;54.302;10.064;2024-01-25T07:15:49;101881.44;;;8.47;73.64
3654;BME280;70277;54.302;10.064;2024-01-25T07:18:16;101890.16;;;8.69;73.32
3654;BME280;70277;54.302;10.064;2024-01-25T07:20:42;101881.41;;;8.66;73.38
3654;BME280;70277;54.302;10.064;2024-01-25T07:23:09;101896.56;;;8.54;73.69
3654;BME280;70277;54.302;10.064;2024-01-25T07:25:36;101896.75;;;8.93;73.02
3654;BME280;70277;54.302;10.064;2024-01-25T07:28:02;101898.66;;;8.72;73.12
3654;BME280;70277;54.302;10.064;2024-01-25T07:30:29;101897.22;;;8.50;73.18
3654;BME280;70277;54.302;10.064;2024-01-25T07:32:55;101888.69;;;8.39;73.95
3654;BME280;70277;54.302;10.064;2024-01-25T07:35:22;101897.63;;;8.47;74.05
3654;BME280;70277;54.302;10.064;2024-01-25T07:37:50;101895.97;;;8.59;73.20
3654;BME280;70277;54.302;10.064;2024-01-25T07:40:16;101908.00;;;8.43;73.65
3654;BME280;70277;54.302;10.064;2024-01-25T07:42:43;101912.56;;;8.62;73.41
3654;BME280;70277;54.302;10.064;2024-01-25T07:45:10;101901.97;;;8.54;73.54
3654;BME280;70277;54.302;10.064;2024-01-25T07:47:42;101904.69;;;8.61;73.39
3654;BME280;70277;54.302;10.064;2024-01-25T07:50:10;101912.97;;;8.66;73.30
3654;BME280;70277;54.302;10.064;2024-01-25T07:52:37;101917.53;;;8.65;73.04
3654;BME280;70277;54.302;10.064;2024-01-25T07:55:04;101918.59;;;8.58;73.11
3654;BME280;70277;54.302;10.064;2024-01-25T07:57:32;101932.50;;;8.75;72.62
3654;BME280;70277;54.302;10.064;2024-01-25T07:59:58;101941.84;;;8.59;73.22
3654;BME280;70277;54.302;10.064;2024-01-25T08:02:25;101939.78;;;8.68;72.99
3654;BME280;70277;54.302;10.064;2024-01-25T08:04:52;101950.72;;;8.39;73.44
3654;BME280;70277;54.302;10.064;2024-01-25T08:07:19;101934.97;;;8.63;73.55
3654;BME280;70277;54.302;10.064;2024-01-25T08:09:46;101961.25;;;8.21;73.68
3654;BME280;70277;54.302;10.064;2024-01-25T08:12:13;101960.09;;;8.63;73.72
3654;BME280;70277;54.302;10.064;2024-01-25T08:14:40;101959.50;;;8.55;73.68
3654;BME280;70277;54.302;10.064;2024-01-25T08:17:09;101963.66;;;8.64;73.24
3654;BME280;70277;54.302;10.064;2024-01-25T08:19:36;101960.94;;;8.64;74.13
3654;BME280;70277;54.302;10.064;2024-01-25T08:22:03;101970.09;;;9.03;73.24
3654;BME280;70277;54.302;10.064;2024-01-25T08:24:30;101976.94;;;9.12;72.57
3654;BME280;70277;54.302;10.064;2024-01-25T08:26:57;101971.31;;;8.80;72.97
3654;BME280;70277;54.302;10.064;2024-01-25T08:29:23;101979.66;;;8.79;73.66
3654;BME280;70277;54.302;10.064;2024-01-25T08:31:50;101969.03;;;9.04;72.30
3654;BME280;70277;54.302;10.064;2024-01-25T08:34:16;101977.97;;;8.98;72.97
3654;BME280;70277;54.302;10.064;2024-01-25T08:36:43;101974.44;;;8.97;73.48
3654;BME280;70277;54.302;10.064;2024-01-25T08:39:09;101979.84;;;8.91;72.76
3654;BME280;70277;54.302;10.064;2024-01-25T08:41:36;101978.19;;;9.09;72.56
3654;BME280;70277;54.302;10.064;2024-01-25T08:44:06;101984.81;;;8.80;73.10
3654;BME280;70277;54.302;10.064;2024-01-25T08:46:33;101999.16;;;8.94;73.44
3654;BME280;70277;54.302;10.064;2024-01-25T08:49:00;101998.94;;;8.82;72.71
3654;BME280;70277;54.302;10.064;2024-01-25T08:51:27;102001.44;;;9.10;72.43
3654;BME280;70277;54.302;10.064;2024-01-25T08:53:53;102018.88;;;9.34;71.50
3654;BME280;70277;54.302;10.064;2024-01-25T08:56:20;102011.81;;;9.33;71.45
3654;BME280;70277;54.302;10.064;2024-01-25T08:58:46;102013.28;;;9.23;71.58
3654;BME280;70277;54.302;10.064;2024-01-25T09:01:14;102007.47;;;9.13;71.51
3654;BME280;70277;54.302;10.064;2024-01-25T09:03:41;102011.84;;;9.00;72.63
3654;BME280;70277;54.302;10.064;2024-01-25T09:06:08;102014.28;;;9.48;71.33
3654;BME280;70277;54.302;10.064;2024-01-25T09:08:35;102010.53;;;9.56;70.60
3654;BME280;70277;54.302;10.064;2024-01-25T09:11:01;102011.03;;;9.98;69.83
3654;BME280;70277;54.302;10.064;2024-01-25T09:13:28;102009.66;;;9.82;70.40
3654;BME280;70277;54.302;10.064;2024-01-25T09:15:55;102021.16;;;9.44;70.56
3654;BME280;70277;54.302;10.064;2024-01-25T09:18:22;102014.72;;;9.25;70.85
3654;BME280;70277;54.302;10.064;2024-01-25T09:20:48;102020.13;;;9.19;72.13
3654;BME280;70277;54.302;10.064;2024-01-25T09:23:15;102028.84;;;9.47;71.00
3654;BME280;70277;54.302;10.064;2024-01-25T09:25:44;102028.66;;;9.22;71.75
3654;BME280;70277;54.302;10.064;2024-01-25T09:28:11;102027.13;;;9.66;70.27
3654;BME280;70277;54.302;10.064;2024-01-25T09:30:39;102027.13;;;9.79;70.27
3654;BME280;70277;54.302;10.064;2024-01-25T09:33:06;102037.28;;;9.84;69.95
3654;BME280;70277;54.302;10.064;2024-01-25T09:35:33;102045.06;;;9.47;69.94
3654;BME280;70277;54.302;10.064;2024-01-25T09:38:00;102046.47;;;9.76;70.03
3654;BME280;70277;54.302;10.064;2024-01-25T09:40:27;102052.25;;;10.00;69.77
3654;BME280;70277;54.302;10.064;2024-01-25T09:42:54;102046.88;;;9.80;70.07
3654;BME280;70277;54.302;10.064;2024-01-25T09:45:21;102050.03;;;9.57;70.65
3654;BME280;70277;54.302;10.064;2024-01-25T09:47:50;102052.53;;;9.25;70.83
3654;BME280;70277;54.302;10.064;2024-01-25T09:50:17;102056.66;;;9.61;70.92
3654;BME280;70277;54.302;10.064;2024-01-25T09:52:44;102060.03;;;9.50;70.51
3654;BME280;70277;54.302;10.064;2024-01-25T09:55:14;102055.69;;;10.14;69.41
3654;BME280;70277;54.302;10.064;2024-01-25T09:57:46;102069.38;;;10.32;68.71
3654;BME280;70277;54.302;10.064;2024-01-25T10:00:14;102076.06;;;10.36;68.63
3654;BME280;70277;54.302;10.064;2024-01-25T10:02:41;102082.25;;;10.50;68.56
3654;BME280;70277;54.302;10.064;2024-01-25T10:05:08;102088.00;;;11.24;67.50
3654;BME280;70277;54.302;10.064;2024-01-25T10:07:45;102074.72;;;10.52;68.40
3654;BME280;70277;54.302;10.064;2024-01-25T10:10:13;102080.34;;;10.89;67.49
3654;BME280;70277;54.302;10.064;2024-01-25T10:12:41;102083.16;;;11.07;67.00
3654;BME280;70277;54.302;10.064;2024-01-25T10:15:09;102089.34;;;10.38;68.16
3654;BME280;70277;54.302;10.064;2024-01-25T10:17:36;102091.91;;;10.19;68.74
3654;BME280;70277;54.302;10.064;2024-01-25T10:20:23;102094.16;;;10.81;67.81
3654;BME280;70277;54.302;10.064;2024-01-25T10:22:52;102099.97;;;10.84;67.35
3654;BME280;70277;54.302;10.064;2024-01-25T10:25:23;102098.59;;;10.10;68.57
3654;BME280;70277;54.302;10.064;2024-01-25T10:27:50;102100.41;;;10.36;68.32
3654;BME280;70277;54.302;10.064;2024-01-25T10:30:17;102091.63;;;10.41;67.61
3654;BME280;70277;54.302;10.064;2024-01-25T10:32:45;102108.03;;;10.53;67.48
3654;BME280;70277;54.302;10.064;2024-01-25T10:35:14;102110.41;;;10.81;66.34
3654;BME280;70277;54.302;10.064;2024-01-25T10:37:44;102106.38;;;10.52;66.65
3654;BME280;70277;54.302;10.064;2024-01-25T10:40:12;102105.75;;;10.50;66.99
3654;BME280;70277;54.302;10.064;2024-01-25T10:42:40;102109.75;;;10.40;68.19
3654;BME280;70277;54.302;10.064;2024-01-25T10:45:07;102107.50;;;10.31;68.25
3654;BME280;70277;54.302;10.064;2024-01-25T10:47:35;102102.59;;;10.59;67.71
3654;BME280;70277;54.302;10.064;2024-01-25T10:50:02;102108.84;;;11.30;66.11
3654;BME280;70277;54.302;10.064;2024-01-25T10:52:30;102107.97;;;11.29;65.69
3654;BME280;70277;54.302;10.064;2024-01-25T10:54:58;102108.34;;;11.90;63.61
3654;BME280;70277;54.302;10.064;2024-01-25T10:57:25;102113.88;;;12.98;61.30
3654;BME280;70277;54.302;10.064;2024-01-25T10:59:51;102115.91;;;13.92;59.27
3654;BME280;70277;54.302;10.064;2024-01-25T11:02:18;102114.09;;;14.73;57.33
3654;BME280;70277;54.302;10.064;2024-01-25T11:04:53;102109.94;;;14.30;57.38
3654;BME280;70277;54.302;10.064;2024-01-25T11:07:21;102109.88;;;13.43;59.14
3654;BME280;70277;54.302;10.064;2024-01-25T11:09:51;102112.13;;;13.58;59.26
3654;BME280;70277;54.302;10.064;2024-01-25T11:12:19;102120.16;;;13.53;59.59
3654;BME280;70277;54.302;10.064;2024-01-25T11:14:53;102121.69;;;13.72;59.29
3654;BME280;70277;54.302;10.064;2024-01-25T11:17:21;102112.44;;;12.96;60.08
3654;BME280;70277;54.302;10.064;2024-01-25T11:19:48;102106.72;;;12.56;61.04
3654;BME280;70277;54.302;10.064;2024-01-25T11:22:17;102109.09;;;12.82;61.17
3654;BME280;70277;54.302;10.064;2024-01-25T11:24:44;102115.84;;;12.91;61.08
3654;BME280;70277;54.302;10.064;2024-01-25T11:27:12;102135.53;;;12.57;62.15
3654;BME280;70277;54.302;10.064;2024-01-25T11:29:40;102128.03;;;12.22;62.87
3654;BME280;70277;54.302;10.064;2024-01-25T11:32:12;102133.28;;;11.98;63.68
3654;BME280;70277;54.302;10.064;2024-01-25T11:34:38;102154.66;;;11.88;64.36
3654;BME280;70277;54.302;10.064;2024-01-25T11:37:05;102138.97;;;11.40;64.79
3654;BME280;70277;54.302;10.064;2024-01-25T11:39:32;102153.44;;;12.27;63.24
3654;BME280;70277;54.302;10.064;2024-01-25T11:41:58;102151.13;;;11.63;64.62
3654;BME280;70277;54.302;10.064;2024-01-25T11:44:25;102139.09;;;11.52;64.60
3654;BME280;70277;54.302;10.064;2024-01-25T11:46:54;102140.53;;;12.04;63.32
3654;BME280;70277;54.302;10.064;2024-01-25T11:49:23;102139.06;;;13.06;60.69
3654;BME280;70277;54.302;10.064;2024-01-25T11:51:51;102135.53;;;12.57;61.49
3654;BME280;70277;54.302;10.064;2024-01-25T11:54:18;102138.59;;;12.79;61.59
3654;BME280;70277;54.302;10.064;2024-01-25T11:56:45;102129.41;;;13.52;60.34
3654;BME280;70277;54.302;10.064;2024-01-25T11:59:12;102126.09;;;13.73;58.98
3654;BME280;70277;54.302;10.064;2024-01-25T12:01:39;102136.38;;;13.71;58.35
3654;BME280;70277;54.302;10.064;2024-01-25T12:04:07;102135.78;;;14.04;58.38
3654;BME280;70277;54.302;10.064;2024-01-25T12:06:35;102128.97;;;14.54;56.74
3654;BME280;70277;54.302;10.064;2024-01-25T12:09:11;102128.75;;;14.44;57.50
3654;BME280;70277;54.302;10.064;2024-01-25T12:11:40;102124.94;;;14.56;56.74
3654;BME280;70277;54.302;10.064;2024-01-25T12:14:10;102136.63;;;15.14;55.59
3654;BME280;70277;54.302;10.064;2024-01-25T12:16:37;102143.19;;;14.85;56.30
3654;BME280;70277;54.302;10.064;2024-01-25T12:19:05;102141.94;;;14.11;57.37
3654;BME280;70277;54.302;10.064;2024-01-25T12:21:33;102136.84;;;13.68;58.64
3654;BME280;70277;54.302;10.064;2024-01-25T12:24:00;102143.59;;;13.89;58.07
3654;BME280;70277;54.302;10.064;2024-01-25T12:26:27;102141.06;;;13.40;59.76
3654;BME280;70277;54.302;10.064;2024-01-25T12:28:54;102142.88;;;12.86;61.49
3654;BME280;70277;54.302;10.064;2024-01-25T12:31:20;102143.44;;;13.07;60.44
3654;BME280;70277;54.302;10.064;2024-01-25T12:33:47;102147.56;;;12.79;62.06
3654;BME280;70277;54.302;10.064;2024-01-25T12:36:14;102157.22;;;12.93;61.28
3654;BME280;70277;54.302;10.064;2024-01-25T12:38:40;102162.22;;;12.78;61.95
3654;BME280;70277;54.302;10.064;2024-01-25T12:41:07;102164.56;;;11.51;64.19
3654;BME280;70277;54.302;10.064;2024-01-25T12:43:34;102163.09;;;11.48;65.62
3654;BME280;70277;54.302;10.064;2024-01-25T12:46:01;102159.72;;;10.89;66.89
3654;BME280;70277;54.302;10.064;2024-01-25T12:48:43;102153.28;;;10.39;68.05
3654;BME280;70277;54.302;10.064;2024-01-25T12:51:13;102151.84;;;10.30;69.31
3654;BME280;70277;54.302;10.064;2024-01-25T12:53:40;102141.81;;;10.37;69.13
3654;BME280;70277;54.302;10.064;2024-01-25T12:56:06;102147.34;;;10.68;68.66
3654;BME280;70277;54.302;10.064;2024-01-25T12:58:33;102143.69;;;10.88;67.98